createdAt,value
2022-08-26T00:01:55.662Z,99904.22
2022-08-26T00:04:25.333Z,99897.41
2022-08-26T00:06:53.920Z,99896.56
2022-08-26T00:09:20.655Z,99896.88
2022-08-26T00:11:47.492Z,99892.53
2022-08-26T00:14:14.719Z,99888.56
2022-08-26T00:16:47.952Z,99885.44
2022-08-26T00:19:20.251Z,99886.50
2022-08-26T00:21:48.620Z,99894.28
2022-08-26T00:24:15.957Z,99886.41
2022-08-26T00:26:42.488Z,99888.66
2022-08-26T00:29:09.569Z,99887.28
2022-08-26T00:31:37.484Z,99890.19
2022-08-26T00:34:04.067Z,99884.91
2022-08-26T00:36:32.431Z,99880.31
2022-08-26T00:38:59.511Z,99885.78
2022-08-26T00:41:26.539Z,99882.56
2022-08-26T00:43:54.251Z,99880.16
2022-08-26T00:46:25.323Z,99881.31
2022-08-26T00:49:05.541Z,99885.09
2022-08-26T00:51:47.314Z,99880.72
2022-08-26T00:54:16.444Z,99874.31
2022-08-26T00:56:52.918Z,99874.50
2022-08-26T00:59:20.375Z,99880.53
2022-08-26T01:01:47.111Z,99875.44
2022-08-26T01:04:19.272Z,99871.88
2022-08-26T01:06:48.578Z,99872.75
2022-08-26T01:09:16.115Z,99870.16
2022-08-26T01:11:42.814Z,99872.09
2022-08-26T01:14:12.438Z,99874.06
2022-08-26T01:16:39.611Z,99877.66
2022-08-26T01:19:27.098Z,99879.22
2022-08-26T01:22:02.453Z,99875.50
2022-08-26T01:24:30.815Z,99880.78
2022-08-26T01:27:05.132Z,99875.72
2022-08-26T01:29:33.694Z,99873.94
2022-08-26T01:32:00.687Z,99870.28
2022-08-26T01:34:35.017Z,99871.75
2022-08-26T01:37:05.431Z,99875.50
2022-08-26T01:39:33.704Z,99879.22
2022-08-26T01:42:03.135Z,99874.84
2022-08-26T01:44:36.343Z,99873.06
2022-08-26T01:47:05.136Z,99879.41
2022-08-26T01:49:35.733Z,99873.59
2022-08-26T01:52:04.836Z,99872.81
2022-08-26T01:54:32.459Z,99875.31
2022-08-26T01:57:00.357Z,99881.56
2022-08-26T01:59:27.067Z,99874.06
2022-08-26T02:01:53.844Z,99877.97
2022-08-26T02:04:36.030Z,99875.00
2022-08-26T02:07:06.481Z,99878.22
2022-08-26T02:09:41.290Z,99868.22
2022-08-26T02:12:09.370Z,99870.66
2022-08-26T02:14:44.446Z,99874.66
2022-08-26T02:17:11.883Z,99871.47
2022-08-26T02:19:41.918Z,99869.44
2022-08-26T02:22:14.989Z,99872.16
2022-08-26T02:24:59.479Z,99872.16
2022-08-26T02:27:31.997Z,99869.75
2022-08-26T02:30:07.819Z,99872.78
2022-08-26T02:32:34.376Z,99867.78
2022-08-26T02:35:01.865Z,99874.19
2022-08-26T02:37:31.231Z,99868.88
2022-08-26T02:39:58.096Z,99864.16
2022-08-26T02:42:24.741Z,99858.72
2022-08-26T02:44:51.819Z,99862.38
2022-08-26T02:47:18.387Z,99867.00
2022-08-26T02:49:47.228Z,99858.03
2022-08-26T02:52:14.831Z,99859.41
2022-08-26T02:54:41.479Z,99861.59
2022-08-26T02:57:08.135Z,99849.03
2022-08-26T02:59:36.058Z,99854.59
2022-08-26T03:02:03.235Z,99850.44
2022-08-26T03:04:30.460Z,99856.00
2022-08-26T03:07:00.019Z,99854.31
2022-08-26T03:09:27.541Z,99858.00
2022-08-26T03:11:55.522Z,99859.06
2022-08-26T03:14:23.972Z,99851.84
2022-08-26T03:16:54.470Z,99860.81
2022-08-26T03:19:25.585Z,99857.16
2022-08-26T03:21:53.734Z,99856.81
2022-08-26T03:24:25.556Z,99843.44
2022-08-26T03:26:52.875Z,99846.31
2022-08-26T03:29:39.516Z,99846.84
2022-08-26T03:32:06.270Z,99838.00
2022-08-26T03:34:33.439Z,99837.09
2022-08-26T03:37:00.310Z,99845.28
2022-08-26T03:39:26.882Z,99840.25
2022-08-26T03:41:54.258Z,99843.13
2022-08-26T03:44:21.051Z,99838.84
2022-08-26T03:46:47.641Z,99845.25
2022-08-26T03:49:15.198Z,99840.19
2022-08-26T03:51:42.145Z,99838.47
2022-08-26T03:54:09.412Z,99843.91
2022-08-26T03:56:37.186Z,99835.03
2022-08-26T03:59:07.599Z,99837.50
2022-08-26T04:01:34.995Z,99840.91
2022-08-26T04:04:01.809Z,99840.66
2022-08-26T04:06:33.448Z,99836.16
2022-08-26T04:09:04.309Z,99843.06
2022-08-26T04:11:34.034Z,99842.84
2022-08-26T04:14:04.332Z,99845.22
2022-08-26T04:16:31.446Z,99838.69
2022-08-26T04:18:58.465Z,99836.81
2022-08-26T04:21:25.880Z,99848.06
2022-08-26T04:23:54.364Z,99839.72
2022-08-26T04:26:22.551Z,99836.81
2022-08-26T04:28:51.123Z,99844.97
2022-08-26T04:31:18.909Z,99839.31
2022-08-26T04:33:47.598Z,99843.84
2022-08-26T04:36:17.459Z,99848.00
2022-08-26T04:38:46.607Z,99843.66
2022-08-26T04:41:15.082Z,99852.19
2022-08-26T04:43:43.958Z,99849.88
2022-08-26T04:46:12.818Z,99844.94
2022-08-26T04:48:41.093Z,99844.44
2022-08-26T04:51:09.701Z,99844.97
2022-08-26T04:53:36.867Z,99848.81
2022-08-26T04:56:04.409Z,99849.31
2022-08-26T04:58:31.256Z,99856.81
2022-08-26T05:00:58.501Z,99865.75
2022-08-26T05:03:30.530Z,99866.88
2022-08-26T05:05:58.907Z,99853.25
2022-08-26T05:08:25.820Z,99857.28
2022-08-26T05:10:56.263Z,99856.47
2022-08-26T05:13:27.477Z,99862.47
2022-08-26T05:15:54.720Z,99869.03
2022-08-26T05:18:27.539Z,99869.28
2022-08-26T05:20:55.040Z,99865.66
2022-08-26T05:23:23.271Z,99863.69
2022-08-26T05:25:54.639Z,99878.41
2022-08-26T05:28:22.080Z,99879.22
2022-08-26T05:30:50.190Z,99871.88
2022-08-26T05:33:18.489Z,99871.69
2022-08-26T05:35:45.860Z,99878.06
2022-08-26T05:38:15.601Z,99878.47
2022-08-26T05:40:44.785Z,99882.63
2022-08-26T05:43:13.318Z,99861.69
2022-08-26T05:45:45.844Z,99870.13
2022-08-26T05:48:13.838Z,99864.72
2022-08-26T05:50:43.852Z,99864.66
2022-08-26T05:53:12.322Z,99868.03
2022-08-26T05:55:44.395Z,99862.16
2022-08-26T05:58:12.454Z,99866.75
2022-08-26T06:00:40.567Z,99860.22
2022-08-26T06:03:08.352Z,99875.44
2022-08-26T06:05:41.946Z,99884.09
2022-08-26T06:08:11.391Z,99883.22
2022-08-26T06:10:55.585Z,99877.81
2022-08-26T06:13:26.861Z,99888.47
2022-08-26T06:15:54.617Z,99875.19
2022-08-26T06:18:36.405Z,99874.66
2022-08-26T06:21:31.452Z,99882.66
2022-08-26T06:24:20.387Z,99880.19
2022-08-26T06:27:01.474Z,99885.63
2022-08-26T06:29:30.112Z,99884.41
2022-08-26T06:31:57.973Z,99883.16
2022-08-26T06:34:29.763Z,99882.81
2022-08-26T06:36:59.757Z,99889.41
2022-08-26T06:39:28.309Z,99888.63
2022-08-26T06:41:57.641Z,99886.59
2022-08-26T06:44:24.201Z,99886.50
2022-08-26T06:46:51.376Z,99885.50
2022-08-26T06:49:18.181Z,99879.13
2022-08-26T06:51:52.705Z,99880.97
2022-08-26T06:54:19.591Z,99876.25
2022-08-26T06:56:46.407Z,99886.91
2022-08-26T06:59:15.370Z,99877.91
2022-08-26T07:01:44.826Z,99882.19
2022-08-26T07:04:14.600Z,99878.31
2022-08-26T07:06:47.068Z,99884.78
2022-08-26T07:09:13.628Z,99884.81
2022-08-26T07:11:41.746Z,99886.38
2022-08-26T07:14:09.088Z,99875.91
2022-08-26T07:16:35.965Z,99879.22
2022-08-26T07:19:03.589Z,99881.28
2022-08-26T07:21:40.372Z,99884.56
2022-08-26T07:24:07.592Z,99883.38
2022-08-26T07:26:34.529Z,99894.69
2022-08-26T07:29:01.795Z,99901.47
2022-08-26T07:31:39.273Z,99894.34
2022-08-26T07:34:09.319Z,99887.75
2022-08-26T07:36:36.631Z,99893.22
2022-08-26T07:39:03.869Z,99894.06
2022-08-26T07:43:56.821Z,99902.28
2022-08-26T07:49:15.784Z,99902.53
2022-08-26T07:51:42.393Z,99890.69
2022-08-26T07:54:10.201Z,99889.13
2022-08-26T07:56:39.486Z,99890.09
2022-08-26T07:59:13.835Z,99883.06
2022-08-26T08:01:45.173Z,99886.13
2022-08-26T08:04:17.320Z,99883.94
2022-08-26T08:06:45.048Z,99885.00
2022-08-26T08:09:14.096Z,99886.63
2022-08-26T08:11:43.535Z,99890.09
2022-08-26T08:14:11.978Z,99885.91
2022-08-26T08:16:41.519Z,99880.19
2022-08-26T08:19:13.574Z,99896.66
2022-08-26T08:21:41.909Z,99883.31
2022-08-26T08:24:08.520Z,99892.28
2022-08-26T08:26:35.501Z,99888.53
2022-08-26T08:29:02.890Z,99888.38
2022-08-26T08:31:56.069Z,99898.00
2022-08-26T08:34:19.226Z,99890.63
2022-08-26T08:36:48.123Z,99894.38
2022-08-26T08:39:14.657Z,99889.09
2022-08-26T08:42:07.449Z,99894.56
2022-08-26T08:44:41.352Z,99877.69
2022-08-26T08:47:33.995Z,99886.91
2022-08-26T08:50:12.474Z,99873.00
2022-08-26T08:52:43.036Z,99879.50
2022-08-26T08:55:16.104Z,99873.66
2022-08-26T08:58:02.571Z,99877.31
2022-08-26T09:00:39.769Z,99883.38
2022-08-26T09:03:31.738Z,99879.81
2022-08-26T09:06:00.501Z,99876.81
2022-08-26T09:08:35.238Z,99873.16
2022-08-26T09:11:03.666Z,99868.53
2022-08-26T09:13:31.702Z,99867.19
2022-08-26T09:16:13.956Z,99870.03
2022-08-26T09:18:47.711Z,99869.72
2022-08-26T09:21:17.864Z,99867.53
2022-08-26T09:23:49.175Z,99864.03
2022-08-26T09:26:24.787Z,99873.47
2022-08-26T09:28:57.467Z,99863.25
2022-08-26T09:31:27.679Z,99870.59
2022-08-26T09:34:17.866Z,99859.09
2022-08-26T09:36:53.583Z,99861.72
2022-08-26T09:39:37.801Z,99864.41
2022-08-26T09:42:07.770Z,99866.69
2022-08-26T09:44:52.128Z,99865.25
2022-08-26T09:47:25.660Z,99860.50
2022-08-26T09:50:09.920Z,99858.13
2022-08-26T09:52:40.343Z,99854.63
2022-08-26T09:55:22.006Z,99856.41
2022-08-26T09:57:54.731Z,99850.59
2022-08-26T10:00:44.035Z,99852.34
2022-08-26T10:03:17.265Z,99851.63
2022-08-26T10:05:58.437Z,99845.28
2022-08-26T10:08:41.285Z,99843.75
2022-08-26T10:11:24.503Z,99848.84
2022-08-26T10:13:56.859Z,99847.00
2022-08-26T10:16:30.284Z,99836.69
2022-08-26T10:19:15.813Z,99838.91
2022-08-26T10:22:06.014Z,99838.75
2022-08-26T10:24:44.188Z,99842.75
2022-08-26T10:27:36.442Z,99838.22
2022-08-26T10:30:23.485Z,99833.41
2022-08-26T10:33:26.309Z,99833.81
2022-08-26T10:42:58.436Z,99819.94
2022-08-26T10:45:31.907Z,99819.63
2022-08-26T10:48:06.800Z,99816.03
2022-08-26T10:50:38.129Z,99813.47
2022-08-26T10:53:25.018Z,99814.16
2022-08-26T10:56:15.901Z,99814.97
2022-08-26T10:59:13.577Z,99814.13
2022-08-26T11:01:52.581Z,99807.09
2022-08-26T11:04:48.210Z,99811.56
2022-08-26T11:07:35.314Z,99813.09
2022-08-26T11:10:31.091Z,99814.22
2022-08-26T11:13:03.550Z,99811.53
2022-08-26T11:15:30.051Z,99811.38
2022-08-26T11:18:03.314Z,99807.09
2022-08-26T11:41:33.637Z,99788.53
2022-08-26T11:44:02.007Z,99774.38
2022-08-26T11:46:37.523Z,99775.31
2022-08-26T11:49:07.321Z,99764.91
2022-08-26T11:51:40.489Z,99771.38
2022-08-26T11:54:14.797Z,99764.38
2022-08-26T11:56:44.773Z,99771.13
2022-08-26T11:59:15.553Z,99763.94
2022-08-26T12:01:45.298Z,99757.44
2022-08-26T12:04:28.730Z,99740.50
2022-08-26T12:06:57.067Z,99746.31
2022-08-26T12:09:27.156Z,99741.88
2022-08-26T12:12:27.067Z,99732.97
2022-08-26T12:15:14.155Z,99736.06
2022-08-26T12:17:42.061Z,99729.94
2022-08-26T12:20:30.372Z,99737.38
2022-08-26T12:23:00.093Z,99737.06
2022-08-26T12:25:28.088Z,99732.41
2022-08-26T12:28:05.511Z,99731.31
2022-08-26T12:30:32.096Z,99723.06
2022-08-26T12:33:21.933Z,99715.47
2022-08-26T12:35:51.474Z,99716.19
2022-08-26T12:38:21.600Z,99712.16
2022-08-26T12:40:50.373Z,99715.88
2022-08-26T12:43:43.579Z,99717.19
2022-08-26T12:46:13.749Z,99706.13
2022-08-26T12:48:44.779Z,99708.00
2022-08-26T12:51:25.677Z,99705.66
2022-08-26T12:53:53.384Z,99708.69
2022-08-26T12:56:29.932Z,99698.13
2022-08-26T12:59:11.173Z,99688.41
2022-08-26T13:01:43.240Z,99686.81
2022-08-26T13:04:37.967Z,99680.94
2022-08-26T13:07:22.386Z,99685.78
2022-08-26T13:09:54.477Z,99673.94
2022-08-26T13:12:27.592Z,99674.19
2022-08-26T13:14:54.803Z,99676.47
2022-08-26T13:17:21.533Z,99665.19
2022-08-26T13:19:49.266Z,99669.22
2022-08-26T13:22:22.542Z,99674.31
2022-08-26T13:24:49.119Z,99669.38
2022-08-26T13:27:16.224Z,99661.22
2022-08-26T13:29:43.509Z,99661.78
2022-08-26T13:32:10.903Z,99649.16
2022-08-26T13:34:38.130Z,99648.44
2022-08-26T13:37:05.250Z,99639.16
2022-08-26T13:39:32.244Z,99643.19
2022-08-26T13:41:58.906Z,99650.03
2022-08-26T13:44:25.886Z,99634.75
2022-08-26T13:46:52.588Z,99637.53
2022-08-26T13:49:19.180Z,99632.50
2022-08-26T13:51:45.754Z,99632.81
2022-08-26T13:54:12.341Z,99624.84
2022-08-26T13:56:39.205Z,99624.38
2022-08-26T13:59:06.676Z,99623.25
2022-08-26T14:01:34.718Z,99620.84
2022-08-26T14:04:03.121Z,99618.72
2022-08-26T14:06:30.416Z,99615.84
2022-08-26T14:08:57.537Z,99617.66
2022-08-26T14:11:25.110Z,99615.22
2022-08-26T14:13:51.934Z,99615.31
2022-08-26T14:16:25.667Z,99608.38
2022-08-26T14:18:53.100Z,99612.06
2022-08-26T14:21:19.835Z,99604.59
2022-08-26T14:23:46.673Z,99607.56
2022-08-26T14:26:23.098Z,99613.69
2022-08-26T14:28:59.818Z,99612.63
2022-08-26T14:31:29.360Z,99610.78
2022-08-26T14:34:02.615Z,99615.94
2022-08-26T14:36:29.490Z,99619.09
2022-08-26T14:38:58.456Z,99615.88
2022-08-26T14:41:25.543Z,99620.97
2022-08-26T14:44:00.273Z,99615.53
2022-08-26T14:46:30.334Z,99606.47
2022-08-26T14:49:01.837Z,99612.97
2022-08-26T14:51:29.778Z,99618.84
2022-08-26T14:54:15.321Z,99607.91
2022-08-26T14:56:48.637Z,99614.38
2022-08-26T14:59:21.507Z,99610.44
2022-08-26T15:01:49.639Z,99605.81
2022-08-26T15:04:16.613Z,99599.81
2022-08-26T15:09:37.621Z,99597.38
2022-08-26T15:12:05.902Z,99599.41
2022-08-26T15:14:33.361Z,99596.44
2022-08-26T15:17:00.838Z,99608.16
2022-08-26T15:19:27.713Z,99601.00
2022-08-26T15:21:54.524Z,99601.28
2022-08-26T15:24:23.203Z,99601.03
2022-08-26T15:26:50.462Z,99589.44
2022-08-26T15:29:17.510Z,99591.44
2022-08-26T15:31:44.345Z,99589.63
2022-08-26T15:34:16.412Z,99580.63
2022-08-26T15:36:44.964Z,99578.75
2022-08-26T15:39:12.245Z,99590.47
2022-08-26T15:41:39.533Z,99590.50
2022-08-26T15:44:07.854Z,99581.75
2022-08-26T15:46:35.714Z,99593.38
2022-08-26T15:49:04.294Z,99581.66
2022-08-26T15:51:34.212Z,99588.63
2022-08-26T15:54:02.936Z,99576.06
2022-08-26T15:56:34.720Z,99571.22
2022-08-26T15:59:02.491Z,99571.22
2022-08-26T16:01:32.066Z,99571.06
2022-08-26T16:03:59.796Z,99562.91
2022-08-26T16:06:30.773Z,99564.47
2022-08-26T16:08:58.060Z,99563.91
2022-08-26T16:11:26.190Z,99562.88
2022-08-26T16:13:52.783Z,99557.88
2022-08-26T16:16:19.622Z,99558.31
2022-08-26T16:18:48.519Z,99562.84
2022-08-26T16:21:19.424Z,99568.00
2022-08-26T16:23:46.368Z,99564.38
2022-08-26T16:26:16.373Z,99567.81
2022-08-26T16:28:43.800Z,99563.47
2022-08-26T16:31:10.931Z,99563.47
2022-08-26T16:33:37.966Z,99556.56
2022-08-26T16:36:05.568Z,99563.25
2022-08-26T16:38:32.402Z,99554.28
2022-08-26T16:41:01.407Z,99546.22
2022-08-26T16:43:28.736Z,99562.16
2022-08-26T16:45:56.184Z,99550.88
2022-08-26T16:48:23.662Z,99545.84
2022-08-26T16:50:51.230Z,99554.09
2022-08-26T16:53:19.129Z,99547.63
2022-08-26T16:55:47.623Z,99545.03
2022-08-26T16:58:15.094Z,99550.94
2022-08-26T17:00:41.845Z,99542.50
2022-08-26T17:03:08.797Z,99550.22
2022-08-26T17:05:36.377Z,99543.28
2022-08-26T17:08:04.193Z,99545.66
2022-08-26T17:10:32.297Z,99542.78
2022-08-26T17:12:59.185Z,99540.34
2022-08-26T17:15:26.083Z,99542.22
2022-08-26T17:17:53.932Z,99553.16
2022-08-26T17:20:22.464Z,99549.00
2022-08-26T17:22:51.063Z,99551.72
2022-08-26T17:25:24.603Z,99547.78
2022-08-26T17:27:51.480Z,99548.78
2022-08-26T17:30:18.876Z,99549.47
2022-08-26T17:32:46.307Z,99548.47
2022-08-26T17:35:14.249Z,99553.38
2022-08-26T17:37:41.690Z,99545.00
2022-08-26T17:40:15.404Z,99541.81
2022-08-26T17:42:42.511Z,99532.56
2022-08-26T17:45:10.260Z,99538.91
2022-08-26T17:47:37.474Z,99531.09
2022-08-26T17:50:05.901Z,99530.81
2022-08-26T17:52:32.820Z,99528.78
2022-08-26T17:54:59.427Z,99529.50
2022-08-26T17:57:26.126Z,99534.50
2022-08-26T17:59:53.549Z,99531.50
2022-08-26T18:02:21.157Z,99536.69
2022-08-26T18:04:48.488Z,99544.34
2022-08-26T18:07:16.187Z,99549.00
2022-08-26T18:09:43.188Z,99546.75
2022-08-26T18:12:09.937Z,99556.66
2022-08-26T18:14:36.813Z,99556.25
2022-08-26T18:17:04.346Z,99554.88
2022-08-26T18:19:31.464Z,99549.06
2022-08-26T18:21:58.400Z,99546.06
2022-08-26T18:24:30.308Z,99560.84
2022-08-26T18:26:57.032Z,99557.94
2022-08-26T18:29:25.662Z,99554.38
2022-08-26T18:31:52.484Z,99548.75
2022-08-26T18:34:19.477Z,99544.13
2022-08-26T18:36:46.771Z,99535.06
2022-08-26T18:39:15.006Z,99541.94
2022-08-26T18:41:49.017Z,99546.97
2022-08-26T18:44:18.184Z,99550.44
2022-08-26T18:46:46.433Z,99560.75
2022-08-26T18:49:15.106Z,99554.06
2022-08-26T18:51:42.868Z,99556.38
2022-08-26T18:54:10.419Z,99560.59
2022-08-26T18:56:39.276Z,99552.97
2022-08-26T18:59:07.629Z,99562.91
2022-08-26T19:01:35.288Z,99555.13
2022-08-26T19:04:03.519Z,99567.69
2022-08-26T19:06:32.884Z,99566.38
2022-08-26T19:08:59.980Z,99573.13
2022-08-26T19:11:31.566Z,99570.75
2022-08-26T19:14:00.744Z,99578.47
2022-08-26T19:16:28.237Z,99580.84
2022-08-26T19:18:56.063Z,99585.94
2022-08-26T19:21:23.490Z,99590.84
2022-08-26T19:23:50.708Z,99586.81
2022-08-26T19:26:17.642Z,99589.28
2022-08-26T19:28:44.197Z,99592.47
2022-08-26T19:31:12.060Z,99595.63
2022-08-26T19:33:42.906Z,99597.19
2022-08-26T19:36:15.019Z,99597.63
2022-08-26T19:38:42.795Z,99589.19
2022-08-26T19:41:13.814Z,99591.00
2022-08-26T19:43:40.699Z,99595.88
2022-08-26T19:46:16.165Z,99608.03
2022-08-26T19:48:46.661Z,99603.22
2022-08-26T19:51:27.126Z,99605.72
2022-08-26T19:53:55.640Z,99603.69
2022-08-26T19:56:23.066Z,99606.72
2022-08-26T19:58:50.484Z,99614.28
2022-08-26T20:01:18.173Z,99610.88
2022-08-26T20:03:45.748Z,99611.25
2022-08-26T20:06:14.417Z,99606.81
2022-08-26T20:08:42.355Z,99612.28
2022-08-26T20:11:14.538Z,99596.63
2022-08-26T20:13:42.134Z,99604.34
2022-08-26T20:16:10.435Z,99595.72
2022-08-26T20:18:55.464Z,99586.63
2022-08-26T20:21:28.482Z,99575.63
2022-08-26T20:24:01.169Z,99572.66
2022-08-26T20:26:29.507Z,99572.53
2022-08-26T20:28:57.916Z,99575.50
2022-08-26T20:31:25.904Z,99584.06
2022-08-26T20:33:53.625Z,99588.03
2022-08-26T20:36:22.704Z,99595.22
2022-08-26T20:38:50.215Z,99593.72
2022-08-26T20:41:17.380Z,99602.88
2022-08-26T20:43:45.289Z,99605.28
2022-08-26T20:46:18.128Z,99592.94
2022-08-26T20:48:46.648Z,99596.28
2022-08-26T20:51:15.749Z,99592.69
2022-08-26T20:53:42.637Z,99600.31
2022-08-26T20:56:10.818Z,99600.50
2022-08-26T20:58:38.183Z,99600.91
2022-08-26T21:01:07.968Z,99596.97
2022-08-26T21:03:36.173Z,99595.03
2022-08-26T21:06:03.873Z,99599.53
2022-08-26T21:08:33.198Z,99593.47
2022-08-26T21:11:00.800Z,99601.78
2022-08-26T21:13:35.784Z,99602.16
2022-08-26T21:16:10.188Z,99594.69
2022-08-26T21:18:37.089Z,99599.59
2022-08-26T21:21:08.384Z,99598.22
2022-08-26T21:23:36.215Z,99591.38
2022-08-26T21:26:08.666Z,99586.50
2022-08-26T21:28:36.783Z,99583.84
2022-08-26T21:31:05.259Z,99582.34
2022-08-26T21:33:32.348Z,99580.69
2022-08-26T21:35:59.694Z,99577.13
2022-08-26T21:38:26.689Z,99582.94
2022-08-26T21:40:59.560Z,99577.13
2022-08-26T21:43:35.062Z,99566.09
2022-08-26T21:46:07.968Z,99572.03
2022-08-26T21:48:35.964Z,99579.59
2022-08-26T21:51:04.969Z,99582.31
2022-08-26T21:53:31.944Z,99586.81
2022-08-26T21:55:58.699Z,99586.91
2022-08-26T21:58:25.332Z,99584.44
2022-08-26T22:00:52.039Z,99582.63
2022-08-26T22:03:18.888Z,99587.97
2022-08-26T22:05:51.397Z,99586.47
2022-08-26T22:08:23.036Z,99575.22
2022-08-26T22:10:55.148Z,99559.13
2022-08-26T22:13:29.685Z,99557.09
2022-08-26T22:15:57.962Z,99549.66
2022-08-26T22:18:26.848Z,99559.13
2022-08-26T22:20:55.582Z,99562.22
2022-08-26T22:23:22.996Z,99572.47
2022-08-26T22:25:50.655Z,99558.41
2022-08-26T22:28:18.076Z,99555.88
2022-08-26T22:30:46.650Z,99550.16
2022-08-26T22:33:14.248Z,99547.13
2022-08-26T22:35:44.988Z,99551.25
2022-08-26T22:38:11.959Z,99545.47
2022-08-26T22:40:44.575Z,99547.53
2022-08-26T22:43:12.918Z,99553.94
2022-08-26T22:45:45.774Z,99549.66
2022-08-26T22:48:15.632Z,99548.13
2022-08-26T22:50:44.226Z,99553.47
2022-08-26T22:53:10.891Z,99542.75
2022-08-26T22:55:38.054Z,99546.13
2022-08-26T22:58:06.041Z,99533.28
2022-08-26T23:00:33.236Z,99540.81
2022-08-26T23:03:01.008Z,99532.06
2022-08-26T23:05:27.738Z,99533.19
2022-08-26T23:07:56.299Z,99527.19
2022-08-26T23:10:26.527Z,99524.59
2022-08-26T23:12:53.707Z,99527.38
2022-08-26T23:15:21.314Z,99527.00
2022-08-26T23:17:57.043Z,99536.53
2022-08-26T23:20:28.153Z,99540.28
2022-08-26T23:22:55.545Z,99531.53
2022-08-26T23:25:23.282Z,99529.19
2022-08-26T23:27:52.057Z,99523.09
2022-08-26T23:30:22.520Z,99527.66
2022-08-26T23:32:50.100Z,99521.34
2022-08-26T23:35:19.916Z,99532.75
2022-08-26T23:37:48.958Z,99530.94
2022-08-26T23:40:20.924Z,99523.94
2022-08-26T23:42:47.941Z,99527.72
2022-08-26T23:45:18.402Z,99520.81
2022-08-26T23:47:45.655Z,99533.53
2022-08-26T23:50:13.146Z,99532.19
2022-08-26T23:52:58.323Z,99534.13
2022-08-26T23:55:25.368Z,99525.31
2022-08-26T23:57:52.169Z,99529.97
